Terminal Aerodrome Forecast
Issued by NWS

Current Version | Previous Version | Graphics & Text | Print | Product List | Glossary On
Versions: 1 2 3 4 5 6 7 8 9 10 11 12 13 14 15 16 17 18 19 20 21
491
FTUS41 KPBZ 252323
TAFMGW
TAF
KMGW 252323Z 2600/2624 12003KT P6SM BKN100
     FM261600 15010KT P6SM VCSH OVC060
     FM262300 15005KT 3SM -SHRA BR OVC040=

USA.gov is the U.S. government's official web portal to all federal, state and local government web resources and services.